createdAt,value
2022-09-26T00:01:31.195Z,89.70
2022-09-26T00:04:01.530Z,89.75
2022-09-26T00:06:30.665Z,89.87
2022-09-26T00:08:59.908Z,90.18
2022-09-26T00:11:30.816Z,90.20
2022-09-26T00:14:01.154Z,89.92
2022-09-26T00:16:29.415Z,90.09
2022-09-26T00:18:58.871Z,90.08
2022-09-26T00:21:28.286Z,90.17
2022-09-26T00:23:56.474Z,89.94
2022-09-26T00:26:27.351Z,90.36
2022-09-26T00:28:55.846Z,90.09
2022-09-26T00:31:26.370Z,89.98
2022-09-26T00:33:54.661Z,89.30
2022-09-26T00:36:37.071Z,89.04
2022-09-26T00:39:06.328Z,89.58
2022-09-26T00:41:37.035Z,89.33
2022-09-26T00:44:25.245Z,89.35
2022-09-26T00:46:54.465Z,88.98
2022-09-26T00:49:26.665Z,88.44
2022-09-26T00:51:58.687Z,88.30
2022-09-26T00:54:29.261Z,88.48
2022-09-26T00:57:04.007Z,89.17
2022-09-26T00:59:35.804Z,89.27
2022-09-26T01:02:05.981Z,89.14
2022-09-26T01:04:37.252Z,89.23
2022-09-26T01:07:08.340Z,88.98
2022-09-26T01:09:37.551Z,88.90
2022-09-26T01:12:08.511Z,88.73
2022-09-26T01:14:38.508Z,88.74
2022-09-26T01:17:08.719Z,88.54
2022-09-26T01:19:49.386Z,88.57
2022-09-26T01:22:37.553Z,88.56
2022-09-26T01:25:19.749Z,88.71
2022-09-26T01:28:04.623Z,88.52
2022-09-26T01:30:42.480Z,88.57
2022-09-26T01:33:29.034Z,88.34
2022-09-26T01:36:13.781Z,88.11
2022-09-26T01:38:56.202Z,88.60
2022-09-26T01:41:37.002Z,88.22
2022-09-26T01:44:16.096Z,88.01
2022-09-26T01:46:49.670Z,87.82
2022-09-26T01:49:22.232Z,88.08
2022-09-26T01:51:57.830Z,88.43
2022-09-26T01:54:31.385Z,87.89
2022-09-26T01:57:02.311Z,87.92
2022-09-26T01:59:34.825Z,88.22
2022-09-26T02:02:13.585Z,88.13
2022-09-26T02:04:45.797Z,88.40
2022-09-26T02:07:16.967Z,88.44
2022-09-26T02:09:51.920Z,88.91
2022-09-26T02:12:24.723Z,88.60
2022-09-26T02:14:55.302Z,88.51
2022-09-26T02:17:28.879Z,89.23
2022-09-26T02:20:00.029Z,89.29
2022-09-26T02:22:31.887Z,89.13
2022-09-26T02:25:01.453Z,89.09
2022-09-26T02:27:29.783Z,89.25
2022-09-26T02:29:58.578Z,89.55
2022-09-26T02:32:32.018Z,89.52
2022-09-26T02:35:02.029Z,89.58
2022-09-26T02:37:32.678Z,89.50
2022-09-26T02:40:01.080Z,89.53
2022-09-26T02:42:36.581Z,89.67
2022-09-26T02:45:21.717Z,89.93
2022-09-26T02:48:14.629Z,89.78
2022-09-26T02:51:04.320Z,89.23
2022-09-26T02:53:50.500Z,89.46
2022-09-26T02:56:27.882Z,89.60
2022-09-26T02:59:01.436Z,89.18
2022-09-26T03:01:41.145Z,88.93
2022-09-26T03:04:19.217Z,89.13
2022-09-26T03:06:51.435Z,88.71
2022-09-26T03:09:22.749Z,88.95
2022-09-26T03:11:54.675Z,88.68
2022-09-26T03:14:22.674Z,89.01
2022-09-26T03:16:52.409Z,89.07
2022-09-26T03:19:29.849Z,88.95
2022-09-26T03:21:58.751Z,89.06
2022-09-26T03:24:27.051Z,89.12
2022-09-26T03:26:59.381Z,89.21
2022-09-26T03:29:27.353Z,89.63
2022-09-26T03:31:55.271Z,89.37
2022-09-26T03:34:24.823Z,89.49
2022-09-26T03:36:52.765Z,89.83
2022-09-26T03:39:20.865Z,89.89
2022-09-26T03:42:01.978Z,90.32
2022-09-26T03:44:31.510Z,90.05
2022-09-26T03:47:24.953Z,89.90
2022-09-26T03:49:56.128Z,89.99
2022-09-26T03:52:24.844Z,89.91
2022-09-26T03:54:53.551Z,89.37
2022-09-26T03:57:22.053Z,89.39
2022-09-26T03:59:58.644Z,89.96
2022-09-26T04:02:32.512Z,89.57
2022-09-26T04:05:16.269Z,89.67
2022-09-26T04:07:44.828Z,89.96
2022-09-26T04:10:13.205Z,89.70
2022-09-26T04:12:41.728Z,89.51
2022-09-26T04:15:11.173Z,89.67
2022-09-26T04:17:40.060Z,89.93
2022-09-26T04:20:09.657Z,90.24
2022-09-26T04:22:42.259Z,90.42
2022-09-26T04:25:10.572Z,90.58
2022-09-26T04:27:39.232Z,90.58
2022-09-26T04:30:08.151Z,90.70
2022-09-26T04:32:39.240Z,91.04
2022-09-26T04:35:25.440Z,90.97
2022-09-26T04:37:55.965Z,90.85
2022-09-26T04:40:24.166Z,91.06
2022-09-26T04:43:13.084Z,91.01
2022-09-26T04:45:43.109Z,91.18
2022-09-26T04:48:11.344Z,91.11
2022-09-26T04:50:44.965Z,91.27
2022-09-26T04:53:14.224Z,91.26
2022-09-26T04:56:01.100Z,91.24
2022-09-26T04:58:32.380Z,90.89
2022-09-26T05:01:03.206Z,90.85
2022-09-26T05:03:44.226Z,90.63
2022-09-26T05:06:14.691Z,90.85
2022-09-26T05:08:46.849Z,91.01
2022-09-26T05:11:18.078Z,91.08
2022-09-26T05:13:49.018Z,90.89
2022-09-26T05:16:20.336Z,90.74
2022-09-26T05:18:51.161Z,90.58
2022-09-26T05:21:19.872Z,90.43
2022-09-26T05:24:07.049Z,90.06
2022-09-26T05:26:41.291Z,89.92
2022-09-26T05:29:09.954Z,90.06
2022-09-26T05:31:54.166Z,89.98
2022-09-26T05:34:26.140Z,89.52
2022-09-26T05:36:56.096Z,89.29
2022-09-26T05:39:43.401Z,89.42
2022-09-26T05:42:13.224Z,89.64
2022-09-26T05:44:41.063Z,89.98
2022-09-26T05:47:09.868Z,90.33
2022-09-26T05:49:38.676Z,89.88
2022-09-26T05:52:07.159Z,90.06
2022-09-26T05:54:36.375Z,89.87
2022-09-26T05:57:21.633Z,90.08
2022-09-26T05:59:55.338Z,90.50
2022-09-26T06:02:25.785Z,90.44
2022-09-26T06:05:14.321Z,90.67
2022-09-26T06:08:01.734Z,91.05
2022-09-26T06:10:38.534Z,91.19
2022-09-26T06:13:08.577Z,91.09
2022-09-26T06:15:47.989Z,90.51
2022-09-26T06:18:15.852Z,89.96
2022-09-26T06:20:43.644Z,90.34
2022-09-26T06:23:12.908Z,89.96
2022-09-26T06:25:43.335Z,89.93
2022-09-26T06:28:11.243Z,90.26
2022-09-26T06:30:39.135Z,90.46
2022-09-26T06:33:16.579Z,90.11
2022-09-26T06:36:03.605Z,89.92
2022-09-26T06:38:35.855Z,89.41
2022-09-26T06:41:08.222Z,89.41
2022-09-26T06:43:36.055Z,89.05
2022-09-26T06:46:10.085Z,88.83
2022-09-26T06:48:56.599Z,89.03
2022-09-26T06:51:48.870Z,88.73
2022-09-26T06:54:18.095Z,88.56
2022-09-26T06:56:47.441Z,88.13
2022-09-26T06:59:16.821Z,87.64
2022-09-26T07:01:51.799Z,87.55
2022-09-26T07:04:42.007Z,87.04
2022-09-26T07:07:28.097Z,87.02
2022-09-26T07:09:56.349Z,86.88
2022-09-26T07:12:45.857Z,87.62
2022-09-26T07:15:15.552Z,87.57
2022-09-26T07:17:45.381Z,87.12
2022-09-26T07:20:35.215Z,87.40
2022-09-26T07:23:23.603Z,86.98
2022-09-26T07:25:53.116Z,87.18
2022-09-26T07:28:22.288Z,87.39
2022-09-26T07:30:51.210Z,86.93
2022-09-26T07:33:27.521Z,87.30
2022-09-26T07:36:00.724Z,86.96
2022-09-26T07:38:30.980Z,86.76
2022-09-26T07:41:01.113Z,86.91
2022-09-26T07:44:06.389Z,86.67
2022-09-26T07:46:39.245Z,86.73
2022-09-26T07:49:24.554Z,86.80
2022-09-26T07:52:11.356Z,86.53
2022-09-26T07:54:56.620Z,86.37
2022-09-26T07:57:40.814Z,85.88
2022-09-26T08:00:31.623Z,85.74
2022-09-26T08:03:12.032Z,84.84
2022-09-26T08:05:40.026Z,84.91
2022-09-26T08:08:07.874Z,84.59
2022-09-26T08:11:15.966Z,84.67
2022-09-26T08:13:55.189Z,84.55
2022-09-26T08:16:39.571Z,84.23
2022-09-26T08:19:07.867Z,84.00
2022-09-26T08:21:36.257Z,83.83
2022-09-26T08:24:04.280Z,83.81
2022-09-26T08:26:32.118Z,83.60
2022-09-26T08:29:09.448Z,84.00
2022-09-26T08:31:39.354Z,83.57
2022-09-26T08:34:08.329Z,83.26
2022-09-26T08:36:37.016Z,83.57
2022-09-26T08:39:31.308Z,83.79
2022-09-26T08:42:35.551Z,83.47
2022-09-26T08:45:49.565Z,83.54
2022-09-26T08:48:52.163Z,83.31
2022-09-26T08:51:29.457Z,83.25
2022-09-26T08:54:05.829Z,82.76
2022-09-26T08:56:37.835Z,82.33
2022-09-26T08:59:12.732Z,82.31
2022-09-26T09:01:44.268Z,81.72
2022-09-26T09:04:34.452Z,81.58
2022-09-26T09:07:12.072Z,81.85
2022-09-26T09:09:40.141Z,81.56
2022-09-26T09:12:39.925Z,81.15
2022-09-26T09:15:49.318Z,81.01
2022-09-26T09:18:30.376Z,81.11
2022-09-26T09:21:32.418Z,81.41
2022-09-26T09:24:19.544Z,81.26
2022-09-26T09:30:16.481Z,81.56
2022-09-26T09:32:59.980Z,80.93
2022-09-26T09:35:54.738Z,80.92
2022-09-26T09:38:39.589Z,80.63
2022-09-26T09:41:37.262Z,80.99
2022-09-26T09:44:11.119Z,81.16
2022-09-26T09:46:42.068Z,81.29
2022-09-26T09:49:20.609Z,81.25
2022-09-26T09:51:57.980Z,81.27
2022-09-26T09:54:47.548Z,80.20
2022-09-26T09:57:41.446Z,79.49
2022-09-26T10:00:12.899Z,78.83
2022-09-26T10:03:00.189Z,79.15
2022-09-26T10:05:37.465Z,79.01
2022-09-26T10:08:11.743Z,78.84
2022-09-26T10:11:11.131Z,77.76
2022-09-26T10:14:03.069Z,76.84
2022-09-26T10:17:22.540Z,76.32
2022-09-26T10:20:36.328Z,75.55
2022-09-26T10:23:12.981Z,74.84
2022-09-26T10:25:48.454Z,74.39
2022-09-26T10:28:27.457Z,74.25
2022-09-26T10:30:57.101Z,73.79
2022-09-26T10:33:33.216Z,73.42
2022-09-26T10:36:19.649Z,72.40
2022-09-26T10:39:11.406Z,71.71
2022-09-26T10:41:42.035Z,70.58
2022-09-26T10:44:25.087Z,69.65
2022-09-26T10:47:09.197Z,69.34
2022-09-26T10:50:04.537Z,69.11
2022-09-26T10:53:06.259Z,68.16
2022-09-26T10:55:39.619Z,68.04
2022-09-26T10:58:15.443Z,68.13
2022-09-26T11:00:49.381Z,68.48
2022-09-26T11:03:23.057Z,68.46
2022-09-26T11:06:29.313Z,68.07
2022-09-26T11:09:11.313Z,66.89
2022-09-26T11:12:23.793Z,67.77
2022-09-26T11:14:57.738Z,67.72
2022-09-26T11:17:43.389Z,67.77
2022-09-26T11:20:17.521Z,68.98
2022-09-26T11:22:51.918Z,70.16
2022-09-26T11:25:26.671Z,70.90
2022-09-26T11:28:02.807Z,71.81
2022-09-26T11:30:50.057Z,72.00
2022-09-26T11:33:23.487Z,72.56
2022-09-26T11:36:36.856Z,72.47
2022-09-26T11:39:14.981Z,71.92
2022-09-26T11:42:01.347Z,71.97
2022-09-26T11:44:44.001Z,72.47
2022-09-26T11:48:02.315Z,72.89
2022-09-26T11:50:54.064Z,73.12
2022-09-26T11:53:50.872Z,73.29
2022-09-26T11:56:37.923Z,73.23
2022-09-26T11:59:20.412Z,73.18
2022-09-26T12:01:55.890Z,73.33
2022-09-26T12:04:42.787Z,73.13
2022-09-26T12:07:20.437Z,73.06
2022-09-26T12:10:07.605Z,71.63
2022-09-26T12:12:43.061Z,69.74
2022-09-26T12:15:23.520Z,68.66
2022-09-26T12:18:04.857Z,67.96
2022-09-26T12:20:38.947Z,66.58
2022-09-26T12:23:18.498Z,65.38
2022-09-26T12:25:58.831Z,64.28
2022-09-26T12:28:44.237Z,63.01
2022-09-26T12:31:21.789Z,63.05
2022-09-26T12:34:17.638Z,61.75
2022-09-26T12:36:57.479Z,61.27
2022-09-26T12:39:54.780Z,60.55
2022-09-26T12:42:40.650Z,60.16
2022-09-26T12:45:40.560Z,58.10
2022-09-26T12:48:25.273Z,56.99
2022-09-26T12:51:15.386Z,57.14
2022-09-26T12:53:59.064Z,57.52
2022-09-26T12:56:43.094Z,57.75
2022-09-26T12:59:25.003Z,56.91
2022-09-26T13:02:13.600Z,57.55
2022-09-26T13:05:03.202Z,58.23
2022-09-26T13:07:42.226Z,57.67
2022-09-26T13:10:28.632Z,57.14
2022-09-26T13:13:30.137Z,58.69
2022-09-26T13:16:14.167Z,57.40
2022-09-26T13:18:46.162Z,55.76
2022-09-26T13:21:20.089Z,55.72
2022-09-26T13:23:53.862Z,54.91
2022-09-26T13:26:28.907Z,53.95
2022-09-26T13:29:17.310Z,52.97
2022-09-26T13:31:52.764Z,53.63
2022-09-26T13:34:23.954Z,54.05
2022-09-26T13:36:52.753Z,54.03
2022-09-26T13:39:30.218Z,53.09
2022-09-26T13:42:03.738Z,52.28
2022-09-26T13:44:53.178Z,52.99
2022-09-26T13:47:34.449Z,53.55
2022-09-26T13:50:15.416Z,53.66
2022-09-26T13:52:52.322Z,54.27
2022-09-26T13:55:22.487Z,54.83
2022-09-26T13:58:04.168Z,54.95
2022-09-26T14:00:53.187Z,54.93
2022-09-26T14:03:41.335Z,55.50
2022-09-26T14:06:20.160Z,56.29
2022-09-26T14:09:27.185Z,56.74
2022-09-26T14:12:21.875Z,55.67
2022-09-26T14:15:17.202Z,54.01
2022-09-26T14:18:07.565Z,53.37
2022-09-26T14:20:48.438Z,52.71
2022-09-26T14:23:38.812Z,52.45
2022-09-26T14:26:11.950Z,52.62
2022-09-26T14:28:47.255Z,52.63
2022-09-26T14:31:37.641Z,52.05
2022-09-26T14:34:17.771Z,51.90
2022-09-26T14:36:47.669Z,51.87
2022-09-26T14:39:31.872Z,51.51
2022-09-26T14:42:07.500Z,51.46
2022-09-26T14:44:37.369Z,51.54
2022-09-26T14:47:09.295Z,51.84
2022-09-26T14:49:39.372Z,51.91
2022-09-26T14:52:20.072Z,52.35
2022-09-26T14:54:49.023Z,52.87
2022-09-26T14:57:22.617Z,53.71
2022-09-26T14:59:50.788Z,54.20
2022-09-26T15:02:26.886Z,54.89
2022-09-26T15:05:05.516Z,55.66
2022-09-26T15:07:37.666Z,56.17
2022-09-26T15:10:18.837Z,56.28
2022-09-26T15:12:53.646Z,56.39
2022-09-26T15:15:34.823Z,55.88
2022-09-26T15:18:08.840Z,55.01
2022-09-26T15:20:45.751Z,54.28
2022-09-26T15:23:25.320Z,53.93
2022-09-26T15:25:56.338Z,53.54
2022-09-26T15:28:25.324Z,53.01
2022-09-26T15:31:25.926Z,52.64
2022-09-26T15:33:59.509Z,52.63
2022-09-26T15:36:34.632Z,52.68
2022-09-26T15:39:07.372Z,52.89
2022-09-26T15:41:52.649Z,52.46
2022-09-26T15:44:24.129Z,51.72
2022-09-26T15:46:52.851Z,51.44
2022-09-26T15:49:24.518Z,51.68
2022-09-26T15:51:56.826Z,52.53
2022-09-26T15:54:30.517Z,53.72
2022-09-26T15:57:02.306Z,54.73
2022-09-26T15:59:36.315Z,55.89
2022-09-26T16:02:23.532Z,56.98
2022-09-26T16:04:54.812Z,58.10
2022-09-26T16:07:26.443Z,58.77
2022-09-26T16:09:56.596Z,59.47
2022-09-26T16:12:29.305Z,59.91
2022-09-26T16:15:02.822Z,60.73
2022-09-26T16:17:36.089Z,61.12
2022-09-26T16:20:22.868Z,61.63
2022-09-26T16:22:54.680Z,61.95
2022-09-26T16:25:52.840Z,62.19
2022-09-26T16:28:44.710Z,62.83
2022-09-26T16:31:24.341Z,63.22
2022-09-26T16:33:54.182Z,63.64
2022-09-26T16:36:24.510Z,64.04
2022-09-26T16:38:56.749Z,64.37
2022-09-26T16:44:28.880Z,64.86
2022-09-26T16:47:02.469Z,65.51
2022-09-26T16:49:34.402Z,65.44
2022-09-26T16:52:35.650Z,66.36
2022-09-26T16:55:06.959Z,66.44
2022-09-26T16:57:37.847Z,66.95
2022-09-26T17:00:27.016Z,66.90
2022-09-26T17:02:54.935Z,67.30
2022-09-26T17:05:23.126Z,67.47
2022-09-26T17:07:51.600Z,67.82
2022-09-26T17:10:24.009Z,67.78
2022-09-26T17:12:53.220Z,68.01
2022-09-26T17:15:27.196Z,67.84
2022-09-26T17:17:56.817Z,68.26
2022-09-26T17:20:26.845Z,68.25
2022-09-26T17:22:55.693Z,68.43
2022-09-26T17:25:25.940Z,69.03
2022-09-26T17:27:57.630Z,69.27
2022-09-26T17:30:25.622Z,69.37
2022-09-26T17:32:54.425Z,69.42
2022-09-26T17:35:26.919Z,69.35
2022-09-26T17:37:56.088Z,69.82
2022-09-26T17:40:27.088Z,69.92
2022-09-26T17:42:57.248Z,69.77
2022-09-26T17:45:29.053Z,70.46
2022-09-26T17:47:59.097Z,70.80
2022-09-26T17:50:30.046Z,71.04
2022-09-26T17:52:58.918Z,70.38
2022-09-26T17:55:29.413Z,70.73
2022-09-26T17:57:58.308Z,71.04
2022-09-26T18:00:29.357Z,71.25
2022-09-26T18:03:03.881Z,71.06
2022-09-26T18:05:34.257Z,71.05
2022-09-26T18:08:08.242Z,71.54
2022-09-26T18:10:50.608Z,71.53
2022-09-26T18:13:24.927Z,71.89
2022-09-26T18:15:53.360Z,71.99
2022-09-26T18:18:23.195Z,72.16
2022-09-26T18:20:54.186Z,71.85
2022-09-26T18:23:26.452Z,71.77
2022-09-26T18:25:58.054Z,72.01
2022-09-26T18:28:26.609Z,72.14
2022-09-26T18:30:59.064Z,72.04
2022-09-26T18:33:28.860Z,72.81
2022-09-26T18:35:56.962Z,72.77
2022-09-26T18:38:24.860Z,72.49
2022-09-26T18:40:55.809Z,72.70
2022-09-26T18:43:25.863Z,73.53
2022-09-26T18:45:53.959Z,73.67
2022-09-26T18:48:24.849Z,73.77
2022-09-26T18:50:53.889Z,73.65
2022-09-26T18:53:24.216Z,73.82
2022-09-26T18:56:09.544Z,73.29
2022-09-26T18:58:39.186Z,73.74
2022-09-26T19:01:09.560Z,73.52
2022-09-26T19:03:40.048Z,73.59
2022-09-26T19:06:11.709Z,73.73
2022-09-26T19:08:42.902Z,73.23
2022-09-26T19:11:14.985Z,72.69
2022-09-26T19:13:45.890Z,73.02
2022-09-26T19:16:14.260Z,72.80
2022-09-26T19:18:42.977Z,72.60
2022-09-26T19:21:21.183Z,72.49
2022-09-26T19:23:50.085Z,72.87
2022-09-26T19:26:26.376Z,72.58
2022-09-26T19:28:57.631Z,72.51
2022-09-26T19:31:25.995Z,72.72
2022-09-26T19:33:54.727Z,72.79
2022-09-26T19:36:22.829Z,72.41
2022-09-26T19:38:50.678Z,73.64
2022-09-26T19:41:18.544Z,73.47
2022-09-26T19:43:46.469Z,73.73
2022-09-26T19:46:25.890Z,74.24
2022-09-26T19:48:54.215Z,73.98
2022-09-26T19:51:22.202Z,73.94
2022-09-26T19:53:50.176Z,74.66
2022-09-26T19:56:18.389Z,74.63
2022-09-26T19:58:48.476Z,74.65
2022-09-26T20:01:22.707Z,74.69
2022-09-26T20:03:51.539Z,74.37
2022-09-26T20:06:22.119Z,74.33
2022-09-26T20:08:50.586Z,74.93
2022-09-26T20:11:18.481Z,74.98
2022-09-26T20:14:00.671Z,74.85
2022-09-26T20:16:31.627Z,74.95
2022-09-26T20:18:59.909Z,74.71
2022-09-26T20:21:30.370Z,74.29
2022-09-26T20:24:00.298Z,74.28
2022-09-26T20:26:29.787Z,74.51
2022-09-26T20:28:57.708Z,74.63
2022-09-26T20:31:28.450Z,75.39
2022-09-26T20:33:59.973Z,75.92
2022-09-26T20:36:31.041Z,76.52
2022-09-26T20:39:02.677Z,76.87
2022-09-26T20:41:33.629Z,76.98
2022-09-26T20:44:05.966Z,76.75
2022-09-26T20:46:37.349Z,77.52
2022-09-26T20:49:12.772Z,78.21
2022-09-26T20:51:40.780Z,78.23
2022-09-26T20:54:20.069Z,78.75
2022-09-26T20:56:48.862Z,78.63
2022-09-26T20:59:16.764Z,78.53
2022-09-26T21:01:44.832Z,78.46
2022-09-26T21:04:16.378Z,78.18
2022-09-26T21:06:44.743Z,78.01
2022-09-26T21:09:16.956Z,78.40
2022-09-26T21:11:45.064Z,78.42
2022-09-26T21:14:13.279Z,78.30
2022-09-26T21:16:45.638Z,78.19
2022-09-26T21:19:20.861Z,77.95
2022-09-26T21:21:52.874Z,78.03
2022-09-26T21:24:34.939Z,77.91
2022-09-26T21:27:02.814Z,78.11
2022-09-26T21:29:30.782Z,78.38
2022-09-26T21:32:04.285Z,78.73
2022-09-26T21:34:34.564Z,78.41
2022-09-26T21:37:03.816Z,78.35
2022-09-26T21:39:32.335Z,78.03
2022-09-26T21:42:03.984Z,78.63
2022-09-26T21:44:38.429Z,78.41
2022-09-26T21:47:06.369Z,78.03
2022-09-26T21:49:35.880Z,77.66
2022-09-26T21:52:10.639Z,76.84
2022-09-26T21:54:43.596Z,77.05
2022-09-26T21:57:15.157Z,76.88
2022-09-26T21:59:44.116Z,76.46
2022-09-26T22:02:12.392Z,76.31
2022-09-26T22:04:41.726Z,76.32
2022-09-26T22:07:09.628Z,76.33
2022-09-26T22:09:37.511Z,76.02
2022-09-26T22:12:05.406Z,76.25
2022-09-26T22:14:33.487Z,75.99
2022-09-26T22:17:01.423Z,76.14
2022-09-26T22:19:33.285Z,76.29
2022-09-26T22:22:02.858Z,76.59
2022-09-26T22:24:31.957Z,77.23
2022-09-26T22:27:00.238Z,77.85
2022-09-26T22:29:28.368Z,77.87
2022-09-26T22:31:56.305Z,78.27
2022-09-26T22:34:24.208Z,78.70
2022-09-26T22:36:52.185Z,79.35
2022-09-26T22:39:21.417Z,79.84
2022-09-26T22:41:49.293Z,80.11
2022-09-26T22:44:17.230Z,79.56
2022-09-26T22:46:45.196Z,79.37
2022-09-26T22:49:13.101Z,79.14
2022-09-26T22:51:41.082Z,78.92
2022-09-26T22:54:09.007Z,79.42
2022-09-26T22:56:38.288Z,79.18
2022-09-26T22:59:06.124Z,79.41
2022-09-26T23:01:34.049Z,79.38
2022-09-26T23:04:02.342Z,79.30
2022-09-26T23:06:31.913Z,79.76
2022-09-26T23:09:00.045Z,79.31
2022-09-26T23:11:28.377Z,80.15
2022-09-26T23:13:57.735Z,80.01
2022-09-26T23:16:28.813Z,80.12
2022-09-26T23:18:57.113Z,79.65
2022-09-26T23:21:27.520Z,79.26
2022-09-26T23:23:57.809Z,79.66
2022-09-26T23:26:27.630Z,80.13
2022-09-26T23:28:58.656Z,79.98
2022-09-26T23:31:28.583Z,80.41
2022-09-26T23:33:57.366Z,80.34
2022-09-26T23:36:25.435Z,81.04
2022-09-26T23:38:53.301Z,81.09
2022-09-26T23:41:21.203Z,81.04
2022-09-26T23:43:49.046Z,81.39
2022-09-26T23:46:18.474Z,81.17
2022-09-26T23:48:46.715Z,80.95
2022-09-26T23:51:14.613Z,80.46
2022-09-26T23:53:42.547Z,80.30
2022-09-26T23:56:12.201Z,79.66
2022-09-26T23:58:40.361Z,79.28
